createdAt,value
2017-11-29T00:02:21.389Z,99651.35
2017-11-29T00:04:47.205Z,99656.47
2017-11-29T00:07:13.036Z,99654.83
2017-11-29T00:09:39.029Z,99650.06
2017-11-29T00:12:04.837Z,99655.26
2017-11-29T00:14:30.632Z,99649.42
2017-11-29T00:16:56.446Z,99660.95
2017-11-29T00:19:22.256Z,99651.59
2017-11-29T00:21:48.097Z,99655.77
2017-11-29T00:24:13.950Z,99651.62
2017-11-29T00:26:39.812Z,99650.61
2017-11-29T00:29:05.605Z,99657.69
2017-11-29T00:31:31.585Z,99657.39
2017-11-29T00:33:58.601Z,99656.73
2017-11-29T00:36:24.437Z,99660.74
2017-11-29T00:38:50.268Z,99660.44
2017-11-29T00:41:16.066Z,99661.66
2017-11-29T00:43:41.894Z,99661.03
2017-11-29T00:46:07.703Z,99659.00
2017-11-29T00:48:33.529Z,99652.44
2017-11-29T00:50:59.337Z,99664.30
2017-11-29T00:53:25.961Z,99671.60
2017-11-29T00:55:51.756Z,99670.12
2017-11-29T00:58:17.637Z,99669.47
2017-11-29T01:00:43.525Z,99676.73
2017-11-29T01:03:09.349Z,99678.44
2017-11-29T01:05:35.587Z,99681.66
2017-11-29T01:08:01.421Z,99677.67
2017-11-29T01:10:27.217Z,99681.56
2017-11-29T01:12:53.020Z,99681.33
2017-11-29T01:15:18.930Z,99682.56
2017-11-29T01:17:44.741Z,99685.61
2017-11-29T01:20:10.561Z,99684.70
2017-11-29T01:22:36.376Z,99681.02
2017-11-29T01:25:02.173Z,99683.89
2017-11-29T01:27:27.981Z,99681.09
2017-11-29T01:29:53.812Z,99674.80
2017-11-29T01:32:19.628Z,99681.13
2017-11-29T01:34:45.444Z,99681.83
2017-11-29T01:37:11.266Z,99685.87
2017-11-29T01:39:37.052Z,99693.20
2017-11-29T01:42:02.862Z,99680.67
2017-11-29T01:44:28.693Z,99679.14
2017-11-29T01:46:54.501Z,99687.02
2017-11-29T01:49:20.312Z,99690.58
2017-11-29T01:51:46.137Z,99690.54
2017-11-29T01:54:11.940Z,99688.98
2017-11-29T01:56:37.737Z,99694.20
2017-11-29T01:59:03.535Z,99692.55
2017-11-29T02:01:29.328Z,99692.71
2017-11-29T02:03:55.126Z,99689.37
2017-11-29T02:06:25.226Z,99697.52
2017-11-29T02:08:51.041Z,99696.28
2017-11-29T02:11:16.822Z,99700.57
2017-11-29T02:13:42.633Z,99698.77
2017-11-29T02:16:08.442Z,99693.41
2017-11-29T02:18:34.237Z,99692.90
2017-11-29T02:21:00.097Z,99696.92
2017-11-29T02:23:25.910Z,99705.59
2017-11-29T02:25:51.729Z,99697.09
2017-11-29T02:28:17.540Z,99699.33
2017-11-29T02:30:43.350Z,99694.69
2017-11-29T02:33:09.144Z,99698.52
2017-11-29T02:35:35.066Z,99700.52
2017-11-29T02:38:00.918Z,99701.21
2017-11-29T02:40:39.001Z,99696.87
2017-11-29T02:43:04.852Z,99684.27
2017-11-29T02:45:30.677Z,99692.03
2017-11-29T02:47:56.503Z,99694.22
2017-11-29T02:50:22.320Z,99700.61
2017-11-29T02:52:48.173Z,99701.42
2017-11-29T02:55:14.031Z,99708.50
2017-11-29T02:57:39.852Z,99701.51
2017-11-29T03:00:05.647Z,99705.63
2017-11-29T03:02:31.453Z,99701.46
2017-11-29T03:04:57.253Z,99708.76
2017-11-29T03:07:23.054Z,99698.97
2017-11-29T03:09:49.180Z,99708.66
2017-11-29T03:12:14.964Z,99706.30
2017-11-29T03:14:40.732Z,99709.61
2017-11-29T03:17:06.557Z,99706.79
2017-11-29T03:19:32.491Z,99702.27
2017-11-29T03:22:05.254Z,99703.29
2017-11-29T03:24:31.168Z,99695.59
2017-11-29T03:26:56.953Z,99694.66
2017-11-29T03:29:22.731Z,99692.64
2017-11-29T03:31:48.518Z,99697.81
2017-11-29T03:34:14.291Z,99703.29
2017-11-29T03:36:40.061Z,99705.04
2017-11-29T03:39:05.847Z,99694.67
2017-11-29T03:41:31.624Z,99702.44
2017-11-29T03:43:57.414Z,99703.27
2017-11-29T03:46:23.216Z,99710.13
2017-11-29T03:48:49.000Z,99709.31
2017-11-29T03:51:14.783Z,99712.35
2017-11-29T03:53:40.777Z,99711.25
2017-11-29T03:56:06.555Z,99709.58
2017-11-29T03:58:32.340Z,99710.98
2017-11-29T04:00:58.222Z,99714.50
2017-11-29T04:03:24.028Z,99715.41
2017-11-29T04:05:49.799Z,99711.16
2017-11-29T04:08:15.624Z,99716.30
2017-11-29T04:10:41.428Z,99718.02
2017-11-29T04:13:07.233Z,99714.11
2017-11-29T04:15:33.337Z,99720.78
2017-11-29T04:17:59.166Z,99713.30
2017-11-29T04:20:24.964Z,99721.05
2017-11-29T04:22:50.790Z,99716.24
2017-11-29T04:25:16.581Z,99720.80
2017-11-29T04:27:42.384Z,99714.75
2017-11-29T04:30:08.385Z,99714.75
2017-11-29T04:32:34.172Z,99717.45
2017-11-29T04:34:59.956Z,99717.82
2017-11-29T04:37:25.773Z,99718.22
2017-11-29T04:39:51.586Z,99721.34
2017-11-29T04:42:17.393Z,99724.91
2017-11-29T04:44:43.195Z,99719.20
2017-11-29T04:47:08.981Z,99723.41
2017-11-29T04:49:34.809Z,99723.15
2017-11-29T04:52:00.758Z,99725.30
2017-11-29T04:54:26.558Z,99720.83
2017-11-29T04:56:52.368Z,99730.60
2017-11-29T04:59:18.268Z,99727.36
2017-11-29T05:01:44.093Z,99729.38
2017-11-29T05:04:09.911Z,99732.67
2017-11-29T05:06:35.739Z,99732.08
2017-11-29T05:09:01.558Z,99734.05
2017-11-29T05:11:27.368Z,99735.42
2017-11-29T05:13:53.504Z,99734.95
2017-11-29T05:16:19.303Z,99734.35
2017-11-29T05:18:45.124Z,99732.47
2017-11-29T05:21:11.132Z,99733.54
2017-11-29T05:23:36.944Z,99736.37
2017-11-29T05:26:02.749Z,99736.92
2017-11-29T05:28:28.915Z,99738.77
2017-11-29T05:30:54.754Z,99745.84
2017-11-29T05:33:20.596Z,99748.16
2017-11-29T05:35:46.765Z,99744.89
2017-11-29T05:38:12.559Z,99750.77
2017-11-29T05:40:38.369Z,99746.53
2017-11-29T05:43:04.347Z,99751.84
2017-11-29T05:45:30.169Z,99749.27
2017-11-29T05:47:55.988Z,99761.49
2017-11-29T05:50:21.833Z,99762.78
2017-11-29T05:52:47.688Z,99755.67
2017-11-29T05:55:13.505Z,99757.37
2017-11-29T05:57:39.345Z,99759.95
2017-11-29T06:00:05.170Z,99760.00
2017-11-29T06:02:30.960Z,99766.25
2017-11-29T06:04:56.780Z,99768.92
2017-11-29T06:07:22.600Z,99767.37
2017-11-29T06:09:48.395Z,99772.73
2017-11-29T06:12:14.199Z,99770.03
2017-11-29T06:14:40.175Z,99777.92
2017-11-29T06:17:05.971Z,99778.52
2017-11-29T06:19:31.847Z,99783.02
2017-11-29T06:21:57.682Z,99786.80
2017-11-29T06:24:23.509Z,99785.12
2017-11-29T06:26:49.316Z,99783.66
2017-11-29T06:29:15.173Z,99782.33
2017-11-29T06:31:40.944Z,99788.73
2017-11-29T06:34:06.744Z,99787.27
2017-11-29T06:36:32.717Z,99778.55
2017-11-29T06:38:58.508Z,99792.73
2017-11-29T06:41:24.304Z,99791.06
2017-11-29T06:43:50.116Z,99790.80
2017-11-29T06:46:15.888Z,99794.92
2017-11-29T06:48:41.693Z,99801.83
2017-11-29T06:51:07.491Z,99803.12
2017-11-29T06:53:33.284Z,99807.99
2017-11-29T06:55:59.056Z,99818.06
2017-11-29T06:58:24.864Z,99810.13
2017-11-29T07:00:50.648Z,99807.17
2017-11-29T07:03:16.436Z,99811.88
2017-11-29T07:05:42.248Z,99803.72
2017-11-29T07:08:08.034Z,99817.99
2017-11-29T07:10:33.822Z,99822.79
2017-11-29T07:12:59.620Z,99826.48
2017-11-29T07:15:25.405Z,99828.81
2017-11-29T07:17:51.188Z,99842.10
2017-11-29T07:20:17.716Z,99834.64
2017-11-29T07:22:43.513Z,99836.38
2017-11-29T07:25:09.313Z,99833.34
2017-11-29T07:27:35.245Z,99845.55
2017-11-29T07:30:01.044Z,99847.94
2017-11-29T07:32:26.832Z,99850.04
2017-11-29T07:34:52.658Z,99851.34
2017-11-29T07:37:18.445Z,99855.78
2017-11-29T07:39:44.263Z,99855.98
2017-11-29T07:42:10.081Z,99849.34
2017-11-29T07:44:35.907Z,99847.36
2017-11-29T07:47:01.705Z,99857.83
2017-11-29T07:49:27.712Z,99856.70
2017-11-29T07:51:53.505Z,99855.87
2017-11-29T07:54:19.279Z,99858.41
2017-11-29T07:56:45.582Z,99863.87
2017-11-29T07:59:11.436Z,99859.57
2017-11-29T08:01:37.240Z,99859.56
2017-11-29T08:04:03.084Z,99862.14
2017-11-29T08:06:28.871Z,99864.30
2017-11-29T08:08:54.771Z,99873.50
2017-11-29T08:11:20.884Z,99867.55
2017-11-29T08:13:46.684Z,99861.86
2017-11-29T08:16:15.384Z,99865.35
2017-11-29T08:18:42.201Z,99866.48
2017-11-29T08:21:10.242Z,99869.34
2017-11-29T08:23:37.574Z,99866.50
2017-11-29T08:26:04.557Z,99874.53
2017-11-29T08:28:30.947Z,99881.13
2017-11-29T08:31:00.210Z,99876.58
2017-11-29T08:33:26.514Z,99883.16
2017-11-29T08:35:53.367Z,99883.46
2017-11-29T08:38:20.043Z,99884.73
2017-11-29T08:40:47.650Z,99883.34
2017-11-29T08:43:14.386Z,99883.72
2017-11-29T08:45:41.217Z,99887.71
2017-11-29T08:48:08.302Z,99887.91
2017-11-29T08:50:35.039Z,99889.55
2017-11-29T08:53:01.844Z,99891.77
2017-11-29T08:55:30.215Z,99894.09
2017-11-29T08:57:56.996Z,99894.95
2017-11-29T09:00:23.784Z,99897.44
2017-11-29T09:02:50.382Z,99896.53
2017-11-29T09:05:17.181Z,99898.66
2017-11-29T09:07:43.816Z,99899.90
2017-11-29T09:10:11.365Z,99900.98
2017-11-29T09:12:37.997Z,99906.38
2017-11-29T09:15:05.389Z,99910.80
2017-11-29T09:17:32.604Z,99915.92
2017-11-29T09:20:02.055Z,99908.66
2017-11-29T09:22:29.021Z,99915.17
2017-11-29T09:24:55.946Z,99911.11
2017-11-29T09:27:22.457Z,99909.55
2017-11-29T09:29:49.097Z,99906.56
2017-11-29T09:32:15.377Z,99909.67
2017-11-29T09:34:41.301Z,99916.30
2017-11-29T09:37:07.140Z,99912.34
2017-11-29T09:39:32.981Z,99917.11
2017-11-29T09:41:58.837Z,99913.56
2017-11-29T09:44:24.732Z,99922.52
2017-11-29T09:46:50.576Z,99916.07
2017-11-29T09:49:16.415Z,99924.61
2017-11-29T09:51:42.217Z,99915.78
2017-11-29T09:54:08.287Z,99922.97
2017-11-29T09:56:34.104Z,99916.70
2017-11-29T09:58:59.940Z,99916.77
2017-11-29T10:01:26.556Z,99919.19
2017-11-29T10:03:52.484Z,99917.55
2017-11-29T10:06:18.376Z,99914.47
2017-11-29T10:08:44.265Z,99910.44
2017-11-29T10:11:10.705Z,99911.98
2017-11-29T10:13:36.646Z,99906.07
2017-11-29T10:16:03.669Z,99912.33
2017-11-29T10:18:29.792Z,99919.25
2017-11-29T10:20:55.641Z,99913.02
2017-11-29T10:23:21.538Z,99914.28
2017-11-29T10:25:47.395Z,99914.33
2017-11-29T10:28:14.012Z,99918.19
2017-11-29T10:30:40.559Z,99917.00
2017-11-29T10:33:06.704Z,99918.63
2017-11-29T10:35:32.607Z,99916.45
2017-11-29T10:37:58.564Z,99922.75
2017-11-29T10:40:24.372Z,99913.61
2017-11-29T10:42:50.187Z,99920.13
2017-11-29T10:45:16.089Z,99916.25
2017-11-29T10:47:41.931Z,99925.77
2017-11-29T10:50:07.744Z,99921.25
2017-11-29T10:52:34.573Z,99920.50
2017-11-29T10:55:00.571Z,99922.27
2017-11-29T10:57:27.239Z,99926.75
2017-11-29T10:59:53.922Z,99924.41
2017-11-29T11:02:20.830Z,99929.69
2017-11-29T11:04:47.574Z,99927.77
2017-11-29T11:07:13.598Z,99931.77
2017-11-29T11:09:39.904Z,99929.31
2017-11-29T11:12:06.338Z,99925.44
2017-11-29T11:14:32.445Z,99931.92
2017-11-29T11:16:58.285Z,99932.08
2017-11-29T11:19:24.122Z,99933.52
2017-11-29T11:21:50.224Z,99934.90
2017-11-29T11:24:17.265Z,99939.63
2017-11-29T11:26:43.661Z,99935.38
2017-11-29T11:29:09.512Z,99941.11
2017-11-29T11:31:35.505Z,99937.45
2017-11-29T11:34:01.444Z,99935.70
2017-11-29T11:36:27.658Z,99935.98
2017-11-29T11:38:54.672Z,99935.30
2017-11-29T11:41:20.532Z,99936.08
2017-11-29T11:43:47.006Z,99941.33
2017-11-29T11:46:13.661Z,99942.06
2017-11-29T11:48:39.664Z,99933.33
2017-11-29T11:51:05.513Z,99931.36
2017-11-29T11:53:31.504Z,99929.22
2017-11-29T11:55:58.656Z,99926.59
2017-11-29T11:58:24.809Z,99924.58
2017-11-29T12:00:51.446Z,99920.38
2017-11-29T12:03:17.839Z,99913.98
2017-11-29T12:05:43.968Z,99917.86
2017-11-29T12:08:09.866Z,99920.17
2017-11-29T12:10:35.801Z,99916.64
2017-11-29T12:13:01.917Z,99913.73
2017-11-29T12:15:28.878Z,99913.80
2017-11-29T12:17:55.215Z,99916.48
2017-11-29T12:20:21.565Z,99905.91
2017-11-29T12:22:47.485Z,99904.72
2017-11-29T12:25:13.439Z,99911.39
2017-11-29T12:27:39.401Z,99904.59
2017-11-29T12:30:05.330Z,99909.34
2017-11-29T12:32:31.188Z,99913.04
2017-11-29T12:34:57.330Z,99909.23
2017-11-29T12:37:23.174Z,99909.37
2017-11-29T12:39:49.049Z,99905.78
2017-11-29T12:42:15.034Z,99909.87
2017-11-29T12:44:40.914Z,99911.08
2017-11-29T12:47:06.765Z,99910.60
2017-11-29T12:49:45.137Z,99916.02
2017-11-29T12:52:11.786Z,99916.94
2017-11-29T12:54:37.609Z,99916.86
2017-11-29T12:57:03.496Z,99918.51
2017-11-29T12:59:29.353Z,99917.52
2017-11-29T13:01:55.213Z,99919.36
2017-11-29T13:04:21.075Z,99925.47
2017-11-29T13:06:46.919Z,99918.38
2017-11-29T13:09:12.773Z,99916.98
2017-11-29T13:11:39.116Z,99914.33
2017-11-29T13:14:04.993Z,99912.38
2017-11-29T13:16:30.821Z,99908.66
2017-11-29T13:18:56.688Z,99915.36
2017-11-29T13:21:22.517Z,99918.88
2017-11-29T13:23:48.348Z,99919.94
2017-11-29T13:26:14.712Z,99917.34
2017-11-29T13:28:40.504Z,99918.41
2017-11-29T13:31:06.300Z,99923.88
2017-11-29T13:33:32.109Z,99918.36
2017-11-29T13:35:57.964Z,99921.80
2017-11-29T13:38:24.305Z,99929.69
2017-11-29T13:40:50.126Z,99926.72
2017-11-29T13:43:15.960Z,99923.44
2017-11-29T13:45:42.168Z,99927.97
2017-11-29T13:48:07.964Z,99928.53
2017-11-29T13:50:33.780Z,99927.66
2017-11-29T13:52:59.624Z,99923.56
2017-11-29T13:55:25.461Z,99927.75
2017-11-29T13:57:51.263Z,99928.84
2017-11-29T14:00:17.513Z,99932.64
2017-11-29T14:02:43.306Z,99931.50
2017-11-29T14:05:09.094Z,99933.94
2017-11-29T14:07:34.931Z,99930.14
2017-11-29T14:10:00.737Z,99928.98
2017-11-29T14:12:26.553Z,99932.84
2017-11-29T14:14:52.591Z,99935.66
2017-11-29T14:17:18.388Z,99933.59
2017-11-29T14:19:44.190Z,99940.10
2017-11-29T14:22:10.662Z,99941.07
2017-11-29T14:24:37.312Z,99937.35
2017-11-29T14:27:03.439Z,99951.91
2017-11-29T14:29:29.347Z,99949.07
2017-11-29T14:31:55.152Z,99948.97
2017-11-29T14:34:21.843Z,99946.20
2017-11-29T14:36:48.521Z,99944.50
2017-11-29T14:39:15.110Z,99948.60
2017-11-29T14:41:41.527Z,99950.18
2017-11-29T14:44:07.385Z,99950.28
2017-11-29T14:46:33.184Z,99945.02
2017-11-29T14:48:58.989Z,99945.59
2017-11-29T14:51:25.244Z,99952.26
2017-11-29T14:53:51.064Z,99950.92
2017-11-29T14:56:16.911Z,99954.72
2017-11-29T14:58:43.232Z,99956.95
2017-11-29T15:01:09.072Z,99956.62
2017-11-29T15:03:36.658Z,99957.15
2017-11-29T15:06:02.642Z,99962.56
2017-11-29T15:08:29.393Z,99960.76
2017-11-29T15:10:55.189Z,99959.29
2017-11-29T15:13:21.805Z,99963.46
2017-11-29T15:15:47.628Z,99965.41
2017-11-29T15:18:13.424Z,99959.34
2017-11-29T15:20:39.213Z,99965.02
2017-11-29T15:23:06.312Z,99962.22
2017-11-29T15:25:32.627Z,99969.64
2017-11-29T15:27:58.936Z,99972.03
2017-11-29T15:30:25.016Z,99972.95
2017-11-29T15:32:50.885Z,99972.61
2017-11-29T15:35:17.268Z,99969.02
2017-11-29T15:37:43.373Z,99972.55
2017-11-29T15:40:09.880Z,99969.06
2017-11-29T15:42:36.088Z,99966.62
2017-11-29T15:45:01.953Z,99968.59
2017-11-29T15:47:27.786Z,99966.54
2017-11-29T15:49:54.204Z,99968.17
2017-11-29T15:52:20.505Z,99968.31
2017-11-29T15:54:47.028Z,99966.59
2017-11-29T15:57:13.080Z,99968.13
2017-11-29T15:59:38.945Z,99966.16
2017-11-29T16:02:04.744Z,99960.63
2017-11-29T16:04:31.042Z,99958.48
2017-11-29T16:06:57.426Z,99969.83
2017-11-29T16:09:24.013Z,99968.98
2017-11-29T16:11:50.484Z,99964.45
2017-11-29T16:14:16.737Z,99968.46
2017-11-29T16:16:42.644Z,99969.13
2017-11-29T16:19:08.460Z,99965.22
2017-11-29T16:21:34.433Z,99971.90
2017-11-29T16:24:00.276Z,99971.37
2017-11-29T16:26:26.064Z,99971.37
2017-11-29T16:28:51.848Z,99972.42
2017-11-29T16:31:17.689Z,99970.41
2017-11-29T16:33:43.524Z,99976.05
2017-11-29T16:36:09.329Z,99971.18
2017-11-29T16:38:35.335Z,99972.91
2017-11-29T16:41:01.138Z,99977.71
2017-11-29T16:43:26.935Z,99971.90
2017-11-29T16:45:52.748Z,99978.95
2017-11-29T16:48:18.524Z,99978.61
2017-11-29T16:50:44.336Z,99975.52
2017-11-29T16:53:10.181Z,99975.03
2017-11-29T16:55:36.048Z,99977.13
2017-11-29T16:58:01.894Z,99977.48
2017-11-29T17:00:28.048Z,99986.48
2017-11-29T17:02:53.857Z,99980.47
2017-11-29T17:05:19.664Z,99969.84
2017-11-29T17:07:45.499Z,99969.65
2017-11-29T17:10:11.302Z,99975.91
2017-11-29T17:12:37.115Z,99968.78
2017-11-29T17:15:02.964Z,99968.45
2017-11-29T17:17:28.764Z,99972.94
2017-11-29T17:19:54.571Z,99965.84
2017-11-29T17:22:20.396Z,99972.32
2017-11-29T17:24:46.202Z,99966.55
2017-11-29T17:27:11.996Z,99963.02
2017-11-29T17:29:50.331Z,99968.36
2017-11-29T17:32:16.152Z,99966.22
2017-11-29T17:34:41.960Z,99970.00
2017-11-29T17:37:07.808Z,99968.84
2017-11-29T17:39:33.617Z,99970.80
2017-11-29T17:41:59.409Z,99971.85
2017-11-29T17:44:25.435Z,99969.75
2017-11-29T17:46:51.218Z,99976.47
2017-11-29T17:49:17.024Z,99976.15
2017-11-29T17:51:42.847Z,99980.34
2017-11-29T17:54:08.647Z,99986.36
2017-11-29T17:56:34.432Z,99980.93
2017-11-29T17:59:00.445Z,99991.00
2017-11-29T18:01:26.268Z,99982.40
2017-11-29T18:03:52.065Z,99985.41
2017-11-29T18:06:18.199Z,99979.54
2017-11-29T18:08:43.996Z,99982.97
2017-11-29T18:11:09.785Z,99979.44
2017-11-29T18:13:35.881Z,99983.59
2017-11-29T18:16:01.681Z,99979.58
2017-11-29T18:18:27.488Z,99974.99
2017-11-29T18:20:53.413Z,99981.54
2017-11-29T18:23:19.237Z,99983.54
2017-11-29T18:25:45.049Z,99982.45
2017-11-29T18:28:11.192Z,99983.20
2017-11-29T18:30:37.010Z,99982.55
2017-11-29T18:33:02.828Z,99988.03
2017-11-29T18:35:28.660Z,99986.65
2017-11-29T18:37:54.493Z,99984.84
2017-11-29T18:40:20.298Z,99981.26
2017-11-29T18:42:46.168Z,99993.96
2017-11-29T18:45:11.971Z,99987.46
2017-11-29T18:47:37.802Z,99989.19
2017-11-29T18:50:03.624Z,99993.48
2017-11-29T18:52:29.449Z,99987.84
2017-11-29T18:54:55.424Z,99992.76
2017-11-29T18:57:21.239Z,99991.00
2017-11-29T18:59:47.020Z,99992.20
2017-11-29T19:02:13.065Z,99994.77
2017-11-29T19:04:38.887Z,99994.91
2017-11-29T19:07:04.796Z,99992.91
2017-11-29T19:09:30.704Z,99991.77
2017-11-29T19:11:56.540Z,100002.69
2017-11-29T19:14:22.654Z,99996.49
2017-11-29T19:16:48.643Z,99997.30
2017-11-29T19:19:14.440Z,99991.52
2017-11-29T19:21:40.239Z,99997.38
2017-11-29T19:24:06.372Z,99995.77
2017-11-29T19:26:32.181Z,99997.34
2017-11-29T19:28:57.968Z,100002.45
2017-11-29T19:31:24.125Z,99997.39
2017-11-29T19:33:49.944Z,99999.88
2017-11-29T19:36:15.750Z,99995.67
2017-11-29T19:38:41.581Z,99997.23
2017-11-29T19:41:07.375Z,99993.30
2017-11-29T19:43:33.165Z,99990.12
2017-11-29T19:45:58.972Z,99991.83
2017-11-29T19:48:24.765Z,99988.28
2017-11-29T19:50:50.563Z,99983.05
2017-11-29T19:53:17.415Z,99994.09
2017-11-29T19:55:43.200Z,99983.79
2017-11-29T19:58:09.008Z,99991.35
2017-11-29T20:00:34.841Z,99990.50
2017-11-29T20:03:00.633Z,99993.50
2017-11-29T20:05:26.440Z,99992.52
2017-11-29T20:07:53.289Z,99998.73
2017-11-29T20:10:19.102Z,99994.69
2017-11-29T20:12:44.918Z,99994.86
2017-11-29T20:15:10.736Z,99996.20
2017-11-29T20:17:36.556Z,99992.87
2017-11-29T20:20:02.364Z,99992.38
2017-11-29T20:22:28.181Z,99991.24
2017-11-29T20:24:53.974Z,99984.89
2017-11-29T20:27:19.795Z,99984.75
2017-11-29T20:29:45.633Z,99985.98
2017-11-29T20:32:11.465Z,99984.21
2017-11-29T20:34:37.301Z,99989.14
2017-11-29T20:37:03.296Z,99988.17
2017-11-29T20:39:37.472Z,99982.44
2017-11-29T20:42:04.225Z,99985.08
2017-11-29T20:44:30.094Z,99984.40
2017-11-29T20:46:56.337Z,99986.61
2017-11-29T20:49:22.833Z,99987.36
2017-11-29T20:51:48.898Z,99981.83
2017-11-29T20:54:15.536Z,99987.66
2017-11-29T20:56:41.914Z,99979.10
2017-11-29T20:59:08.670Z,99979.15
2017-11-29T21:01:35.155Z,99984.84
2017-11-29T21:04:01.707Z,99986.78
2017-11-29T21:06:27.635Z,99982.82
2017-11-29T21:08:54.071Z,99979.09
2017-11-29T21:11:19.941Z,99984.06
2017-11-29T21:13:45.806Z,99983.30
2017-11-29T21:16:12.428Z,99983.06
2017-11-29T21:18:39.076Z,99982.72
2017-11-29T21:21:06.204Z,99984.78
2017-11-29T21:23:32.045Z,99983.25
2017-11-29T21:25:59.796Z,99979.05
2017-11-29T21:28:39.367Z,99982.58
2017-11-29T21:31:18.901Z,99983.95
2017-11-29T21:34:01.344Z,99974.59
2017-11-29T21:36:42.785Z,99975.98
2017-11-29T21:39:22.276Z,99975.98
2017-11-29T21:42:02.761Z,99975.98
2017-11-29T21:44:43.234Z,99973.08
2017-11-29T21:47:23.226Z,99983.39
2017-11-29T21:50:00.836Z,99981.86
2017-11-29T21:52:40.863Z,99982.42
2017-11-29T21:55:21.457Z,99979.94
2017-11-29T21:57:59.187Z,99979.80
2017-11-29T22:00:38.803Z,99978.08
2017-11-29T22:03:19.118Z,99975.66
2017-11-29T22:05:59.173Z,99982.47
2017-11-29T22:08:39.117Z,99984.04
2017-11-29T22:11:05.724Z,99976.11
2017-11-29T22:13:32.236Z,99976.55
2017-11-29T22:15:58.758Z,99973.17
2017-11-29T22:18:26.101Z,99970.30
2017-11-29T22:20:51.962Z,99973.41
2017-11-29T22:23:17.752Z,99972.27
2017-11-29T22:25:43.726Z,99971.55
2017-11-29T22:28:11.100Z,99967.92
2017-11-29T22:30:37.283Z,99968.97
2017-11-29T22:33:03.923Z,99969.97
2017-11-29T22:35:29.792Z,99966.30
2017-11-29T22:37:56.461Z,99968.53
2017-11-29T22:40:22.296Z,99966.86
2017-11-29T22:42:48.100Z,99957.52
2017-11-29T22:45:13.914Z,99967.02
2017-11-29T22:47:40.210Z,99970.08
2017-11-29T22:50:06.006Z,99963.59
2017-11-29T22:52:31.813Z,99962.39
2017-11-29T22:54:58.589Z,99966.56
2017-11-29T22:57:25.125Z,99957.58
2017-11-29T22:59:51.676Z,99959.11
2017-11-29T23:02:17.484Z,99958.53
2017-11-29T23:04:43.269Z,99957.91
2017-11-29T23:07:09.371Z,99952.66
2017-11-29T23:09:35.270Z,99950.59
2017-11-29T23:12:02.644Z,99952.92
2017-11-29T23:14:28.532Z,99950.82
2017-11-29T23:16:54.363Z,99945.67
2017-11-29T23:19:21.534Z,99952.17
2017-11-29T23:21:47.720Z,99947.25
2017-11-29T23:24:15.333Z,99951.41
2017-11-29T23:26:41.154Z,99945.25
2017-11-29T23:29:06.965Z,99936.17
2017-11-29T23:31:32.784Z,99942.48
2017-11-29T23:33:58.585Z,99940.48
2017-11-29T23:36:24.400Z,99945.83
2017-11-29T23:38:50.199Z,99949.36
2017-11-29T23:41:16.006Z,99947.69
2017-11-29T23:43:41.816Z,99948.92
2017-11-29T23:46:07.603Z,99949.22
2017-11-29T23:48:33.693Z,99939.53
2017-11-29T23:50:59.484Z,99942.91
2017-11-29T23:53:25.276Z,99941.06
2017-11-29T23:55:51.092Z,99932.27
2017-11-29T23:58:16.896Z,99934.76
